Flight Track Log - Related Links

Times and Time Zones

All times are in EDT time to prevent confusion due to time zone crossing. See the ASQ5750 flight status page for this flight to view local times or setup timezone preferences in your user account.

Time Position Orientation Groundspeed Altitude Reporting Facility
EDT Latitude Longitude Course Direction KTS MPH feet Rate Location/Type
Wed 03:15:16 PM 45.4500 -73.7667 254° West 130 150 600  Level Montreal Center
Wed 03:16:16 PM 45.4500 -73.8500 270° West 190 219 2,400 2,150 Climbing Montreal Center
Wed 03:17:16 PM 45.4500 -73.9333 270° West 240 276 4,900 2,550 Climbing Montreal Center
Wed 03:18:16 PM 45.4500 -74.0333 270° West 270 311 7,500 2,600 Climbing Montreal Center
Wed 03:19:16 PM 45.4833 -74.1500 292° West 280 322 10,100 2,300 Climbing Montreal Center
Wed 03:20:00 PM 45.4937 -74.5149 254° West  Level FlightAware Approximate
Wed 03:20:16 PM 45.4833 -74.2667 270° West 310 357 12,100  Level Montreal Center
Wed 03:21:16 PM 45.4667 -74.3833 259° West 320 368 14,000 1,850 Climbing Montreal Center
Wed 03:22:16 PM 45.4667 -74.5333 270° West 330 380 15,800 1,800 Climbing Montreal Center
Wed 03:23:16 PM 45.4667 -74.6500 270° West 340 391 17,600 1,300 Climbing Montreal Center
Wed 03:24:16 PM 45.4500 -74.8000 261° West 350 403 18,400 1,150 Climbing Montreal Center
Wed 03:25:16 PM 45.4500 -74.9333 270° West 350 403 19,900 1,350 Climbing Montreal Center
Wed 03:26:16 PM 45.4333 -75.0833 261° West 360 414 21,100 950 Climbing Montreal Center
Wed 03:27:16 PM 45.4333 -75.2333 270° West 370 426 21,800 800 Climbing Montreal Center
Wed 03:28:16 PM 45.4167 -75.4000 262° West 390 449 22,700 1,150 Climbing Montreal Center
Wed 03:29:16 PM 45.4167 -75.5333 270° West 390 449 24,100 1,150 Climbing Montreal Center
Wed 03:30:16 PM 45.4333 -75.7000 278° West 390 449 25,000 900 Climbing Montreal Center
Wed 03:31:16 PM 45.4167 -75.8500 261° West 390 449 25,900 700 Climbing Montreal Center
Wed 03:32:16 PM 45.4167 -76.0167 270° West 390 449 26,400 550 Climbing Montreal Center
Wed 03:33:16 PM 45.4000 -76.1833 262° West 410 472 27,000 500 Climbing Montreal Center
Wed 03:34:16 PM 45.3667 -76.3333 252° West 420 483 27,400 500 Climbing Montreal Center
Wed 03:35:16 PM 45.3333 -76.5000 254° West 420 483 28,000 550 Climbing Montreal Center
Wed 03:36:16 PM 45.2833 -76.6667 247° West 420 483 28,500 500 Climbing Montreal Center
Wed 03:37:16 PM 45.2500 -76.8000 250° West 430 495 29,000 500 Climbing Montreal Center
Wed 03:38:16 PM 45.2167 -76.9667 254° West 430 495 29,500 500 Climbing Montreal Center
Wed 03:39:16 PM 45.1833 -77.1333 254° West 430 495 30,000 250 Climbing Montreal Center
Wed 03:40:16 PM 45.1500 -77.3000 254° West 430 495 30,000  Level Montreal Center
Wed 03:41:16 PM 45.1000 -77.4667 247° West 420 483 30,000  Level Montreal Center
Wed 03:42:16 PM 45.0667 -77.6000 251° West 410 472 30,000  Level Montreal Center
Wed 03:43:16 PM 45.0333 -77.7667 254° West 410 472 30,000  Level Montreal Center
Wed 03:44:16 PM 44.9833 -77.9167 245° Southwest 410 472 30,000  Level Montreal Center
Wed 03:45:16 PM 44.9500 -78.0667 253° West 410 472 30,000  Level Montreal Center
Wed 03:46:16 PM 44.9167 -78.2333 254° West 410 472 30,000  Level Montreal Center
Wed 03:47:16 PM 44.8833 -78.3833 253° West 420 483 30,000  Level Montreal Center
Wed 03:48:16 PM 44.8500 -78.5500 254° West 420 483 30,000  Level Montreal Center
Wed 03:49:16 PM 44.7833 -78.6833 235° Southwest 420 483 30,000  Level Montreal Center
Wed 03:50:16 PM 44.7500 -78.8500 254° West 420 483 30,000  Level Montreal Center
Wed 03:51:16 PM 44.7000 -78.9833 242° Southwest 410 472 30,000  Level Montreal Center
Wed 03:52:16 PM 44.6500 -79.1167 242° Southwest 410 472 30,000  Level Montreal Center
Wed 03:53:16 PM 44.6000 -79.2833 247° West 400 460 30,000  Level Montreal Center
Wed 03:54:16 PM 44.5500 -79.4000 239° Southwest 400 460 30,000  Level Montreal Center
Wed 03:55:16 PM 44.5000 -79.5333 242° Southwest 400 460 30,000  Level Montreal Center
Wed 03:56:25 PM 44.4333 -79.6833 238° Southwest 400 460 30,000  Level Toronto Center
Wed 03:57:25 PM 44.3833 -79.8167 242° Southwest 400 460 30,000  Level Toronto Center
Wed 03:58:25 PM 44.3333 -79.9667 245° Southwest 400 460 30,000  Level Toronto Center
Wed 03:59:25 PM 44.2833 -80.0833 239° Southwest 400 460 30,000  Level Toronto Center
Wed 04:00:25 PM 44.2333 -80.2167 242° Southwest 400 460 30,000  Level Toronto Center
Wed 04:01:25 PM 44.1833 -80.3500 242° Southwest 400 460 30,000  Level Toronto Center
Wed 04:02:25 PM 44.1333 -80.5000 245° Southwest 400 460 30,000  Level Toronto Center
Wed 04:03:25 PM 44.0833 -80.6333 242° Southwest 400 460 30,000  Level Toronto Center
Wed 04:04:25 PM 44.0333 -80.7667 242° Southwest 400 460 30,000  Level Toronto Center
Wed 04:05:25 PM 43.9667 -80.9000 235° Southwest 400 460 30,000  Level Toronto Center
Wed 04:06:25 PM 43.9167 -81.0500 245° Southwest 400 460 30,000  Level Toronto Center
Wed 04:07:25 PM 43.8667 -81.1833 243° Southwest 400 460 30,000  Level Toronto Center
Wed 04:08:25 PM 43.8167 -81.3000 239° Southwest 400 460 30,000  Level Toronto Center
Wed 04:09:25 PM 43.7667 -81.4333 243° Southwest 400 460 30,000  Level Toronto Center
Wed 04:10:25 PM 43.7000 -81.5667 235° Southwest 400 460 30,000  Level Toronto Center
Wed 04:11:25 PM 43.6667 -81.7000 251° West 400 460 30,000  Level Toronto Center
Wed 04:12:25 PM 43.6000 -81.8500 238° Southwest 400 460 30,000  Level Toronto Center
Wed 04:13:25 PM 43.5333 -81.9833 235° Southwest 400 460 30,000  Level Toronto Center
Wed 04:14:25 PM 43.4833 -82.1167 243° Southwest 400 460 30,000  Level Toronto Center
Wed 04:14:58 PM 43.4828 -82.1739 269° West 400 460 30,000  Level Cleveland Center
Wed 04:15:58 PM 43.4269 -82.3039 239° Southwest 400 460 30,000  Level Cleveland Center
Wed 04:16:58 PM 43.3728 -82.4339 240° Southwest 400 460 30,000  Level Cleveland Center
Wed 04:17:25 PM 43.3333 -82.5000 231° Southwest 400 460 30,000  Level Toronto Center
Wed 04:18:25 PM 43.2833 -82.6333 243° Southwest 400 460 30,000  Level Toronto Center
Wed 04:18:58 PM 43.2642 -82.6956 247° West 400 460 30,000  Level Cleveland Center
Wed 04:19:58 PM 43.2219 -82.8339 247° West 395 455 30,000  Level Cleveland Center
Wed 04:20:58 PM 43.1836 -82.9747 250° West 395 455 30,000  Level Cleveland Center
Wed 04:21:58 PM 43.1453 -83.1156 250° West 395 455 30,000  Level Cleveland Center
Wed 04:22:58 PM 43.1067 -83.2533 249° West 395 455 30,000  Level Cleveland Center
Wed 04:23:58 PM 43.0658 -83.3908 248° West 395 455 30,000  Level Cleveland Center
Wed 04:24:58 PM 43.0289 -83.5342 251° West 389 448 30,000  Level Cleveland Center
Wed 04:25:58 PM 42.9833 -83.6853 248° West 389 448 30,000  Level Cleveland Center
Wed 04:26:58 PM 42.9569 -83.8144 254° West 389 448 30,000  Level Cleveland Center
Wed 04:27:58 PM 42.9442 -83.9642 263° West 395 455 30,000  Level Cleveland Center
Wed 04:28:58 PM 42.9286 -84.1306 263° West 405 466 30,000  Level Cleveland Center
Wed 04:29:58 PM 42.9136 -84.2800 262° West 405 466 30,000  Level Cleveland Center
Wed 04:30:47 PM 42.9047 -84.3814 263° West 400 460 30,000  Level Chicago Center
Wed 04:31:49 PM 42.8900 -84.5308 262° West 399 459 30,000  Level Chicago Center
Wed 04:32:51 PM 42.8736 -84.6811 262° West 400 460 30,000  Level Chicago Center
Wed 04:33:53 PM 42.8547 -84.8603 262° West 399 459 30,000  Level Chicago Center
Wed 04:34:55 PM 42.8394 -85.0106 262° West 401 461 30,000  Level Chicago Center
Wed 04:35:57 PM 42.8233 -85.1603 262° West 400 460 30,000  Level Chicago Center
Wed 04:36:59 PM 42.8072 -85.3100 262° West 400 460 30,000 -145 Level Chicago Center
Wed 04:38:01 PM 42.7908 -85.4611 262° West 403 464 29,700 -629 Descending Chicago Center
Wed 04:39:03 PM 42.7644 -85.6231 258° West 433 498 28,700 -1,065 Descending Chicago Center
Wed 04:40:05 PM 42.7267 -85.8292 256° West 464 534 27,500 -1,839 Descending Chicago Center
Wed 04:41:07 PM 42.6958 -86.0017 256° West 465 535 24,900 -2,160 Descending Chicago Center
Wed 04:42:10 PM 42.6644 -86.1714 256° West 461 531 23,000 -912 Descending Chicago Center
Wed 04:43:12 PM 42.6333 -86.3392 256° West 458 527 23,000 -968 Level Chicago Center
Wed 04:44:14 PM 42.6011 -86.5042 255° West 453 521 21,000 -2,081 Descending Chicago Center
Wed 04:45:16 PM 42.5731 -86.6589 256° West 429 494 18,700 -2,177 Descending Chicago Center
Wed 04:46:18 PM 42.5356 -86.8236 253° West 411 473 16,500 -2,177 Descending Chicago Center
Wed 04:47:20 PM 42.4950 -86.9728 250° West 392 451 14,200 -2,129 Descending Chicago Center
Wed 04:48:22 PM 42.4581 -87.1022 249° West 373 429 12,100 -1,790 Descending Chicago Center
Wed 04:49:24 PM 42.4292 -87.2147 251° West 316 364 10,500 -1,452 Descending Chicago Center
Wed 04:50:26 PM 42.4025 -87.3061 248° West 269 310 9,100 -774 Descending Chicago Center
Wed 04:51:28 PM 42.3756 -87.4058 250° West 264 304 8,900 -532 Descending Chicago Center
Wed 04:52:30 PM 42.3511 -87.4967 250° West 261 300 8,000 -912 Descending Chicago Center
Wed 04:53:33 PM 42.2989 -87.5603 222° Southwest 257 296 7,000 -720 Descending Chicago Center
Wed 04:54:35 PM 42.2419 -87.6261 221° Southwest 224 258 6,500 -484 Descending Chicago Center
Wed 04:55:37 PM 42.2047 -87.6661 219° Southwest 175 201 6,000 -581 Descending Chicago Center
Wed 04:56:39 PM 42.1686 -87.7056 219° Southwest 169 194 5,300 -919 Descending Chicago Center
Wed 04:57:41 PM 42.1347 -87.7456 221° Southwest 165 190 4,100 -1,091 Descending Chicago Center
Wed 04:58:29 PM 42.1000 -87.7833 219° Southwest 169 194 3,300 -936 Descending Chicago TRACON
Wed 04:59:30 PM 42.0667 -87.8167 217° Southwest 179 206 2,400 -893 Descending Chicago TRACON
Wed 05:00:30 PM 42.0333 -87.8667 228° Southwest 158 182 1,500 -900 Descending Chicago TRACON
Wed 05:02:00 PM 41.9817 -87.9067 217° Southwest  Level Estimated
Wed 05:09:00 PM 41.9817 -87.9067 217° Southwest  Level Estimated

Login

Don't have an account? Register now (free) for customized features, flight alerts, and more!